sensor_id;sensor_type;location;lat;lon;timestamp;pressure;altitude;pressure_sealevel;temperature;humidity
36932;BME280;22847;42.654;23.370;2022-11-03T00:00:54;95174.81;;;19.01;38.09
36932;BME280;22847;42.654;23.370;2022-11-03T00:03:20;95179.91;;;18.88;37.17
36932;BME280;22847;42.654;23.370;2022-11-03T00:05:45;95189.31;;;18.91;38.95
36932;BME280;22847;42.654;23.370;2022-11-03T00:08:30;95183.72;;;19.00;38.69
36932;BME280;22847;42.654;23.370;2022-11-03T00:11:21;95179.19;;;18.94;38.09
36932;BME280;22847;42.654;23.370;2022-11-03T00:13:47;95181.00;;;18.79;38.48
36932;BME280;22847;42.654;23.370;2022-11-03T00:16:12;95168.34;;;18.75;38.76
36932;BME280;22847;42.654;23.370;2022-11-03T00:18:38;95183.94;;;18.84;39.24
36932;BME280;22847;42.654;23.370;2022-11-03T00:21:08;95151.22;;;18.56;38.12
36932;BME280;22847;42.654;23.370;2022-11-03T00:23:39;95201.97;;;18.81;38.15
36932;BME280;22847;42.654;23.370;2022-11-03T00:26:11;95139.03;;;18.55;37.69
36932;BME280;22847;42.654;23.370;2022-11-03T00:28:38;95166.84;;;18.43;38.39
36932;BME280;22847;42.654;23.370;2022-11-03T00:31:15;95185.19;;;18.59;38.73
36932;BME280;22847;42.654;23.370;2022-11-03T00:33:41;95165.66;;;18.45;39.46
36932;BME280;22847;42.654;23.370;2022-11-03T00:36:11;94944.31;;;17.09;39.90
36932;BME280;22847;42.654;23.370;2022-11-03T00:38:37;95181.47;;;18.53;40.67
36932;BME280;22847;42.654;23.370;2022-11-03T00:41:04;95209.69;;;18.53;40.68
36932;BME280;22847;42.654;23.370;2022-11-03T00:43:31;95184.66;;;18.63;41.07
36932;BME280;22847;42.654;23.370;2022-11-03T00:45:57;95186.22;;;18.73;40.37
36932;BME280;22847;42.654;23.370;2022-11-03T00:48:23;95167.09;;;18.33;40.64
36932;BME280;22847;42.654;23.370;2022-11-03T00:53:27;95148.06;;;18.38;41.84
36932;BME280;22847;42.654;23.370;2022-11-03T00:55:52;95195.31;;;18.70;40.38
36932;BME280;22847;42.654;23.370;2022-11-03T00:58:18;95139.25;;;18.31;40.21
36932;BME280;22847;42.654;23.370;2022-11-03T01:00:43;95188.69;;;18.51;39.04
36932;BME280;22847;42.654;23.370;2022-11-03T01:03:08;95200.13;;;18.66;38.92
36932;BME280;22847;42.654;23.370;2022-11-03T01:05:34;94942.56;;;17.01;39.69
36932;BME280;22847;42.654;23.370;2022-11-03T01:08:18;94964.28;;;17.03;41.16
36932;BME280;22847;42.654;23.370;2022-11-03T01:10:43;95236.91;;;18.53;41.27
36932;BME280;22847;42.654;23.370;2022-11-03T01:13:28;95159.63;;;18.22;41.09
36932;BME280;22847;42.654;23.370;2022-11-03T01:15:57;94955.03;;;17.07;40.98
36932;BME280;22847;42.654;23.370;2022-11-03T01:18:23;95156.44;;;18.26;40.71
36932;BME280;22847;42.654;23.370;2022-11-03T01:20:56;95197.16;;;18.47;40.86
36932;BME280;22847;42.654;23.370;2022-11-03T01:23:22;94965.31;;;17.17;41.36
36932;BME280;22847;42.654;23.370;2022-11-03T01:25:49;95169.38;;;17.99;41.87
36932;BME280;22847;42.654;23.370;2022-11-03T01:28:14;95191.59;;;18.42;41.28
36932;BME280;22847;42.654;23.370;2022-11-03T01:30:40;95200.47;;;18.49;40.38
36932;BME280;22847;42.654;23.370;2022-11-03T01:33:05;95195.78;;;18.51;40.29
36932;BME280;22847;42.654;23.370;2022-11-03T01:35:31;95140.16;;;18.23;40.66
36932;BME280;22847;42.654;23.370;2022-11-03T01:37:56;95119.44;;;18.12;40.24
36932;BME280;22847;42.654;23.370;2022-11-03T01:40:22;95192.03;;;18.31;41.43
36932;BME280;22847;42.654;23.370;2022-11-03T01:42:48;95196.75;;;17.98;42.32
36932;BME280;22847;42.654;23.370;2022-11-03T01:45:13;95117.06;;;17.57;42.67
36932;BME280;22847;42.654;23.370;2022-11-03T01:47:40;95159.25;;;17.88;43.12
36932;BME280;22847;42.654;23.370;2022-11-03T01:50:07;95201.19;;;18.20;43.14
36932;BME280;22847;42.654;23.370;2022-11-03T01:52:54;95023.53;;;17.07;43.64
36932;BME280;22847;42.654;23.370;2022-11-03T01:55:27;95201.41;;;18.18;44.29
36932;BME280;22847;42.654;23.370;2022-11-03T01:57:59;95173.84;;;17.98;44.48
36932;BME280;22847;42.654;23.370;2022-11-03T02:00:26;95205.56;;;18.13;44.54
36932;BME280;22847;42.654;23.370;2022-11-03T02:02:52;95191.91;;;18.09;45.07
36932;BME280;22847;42.654;23.370;2022-11-03T02:05:20;95218.69;;;18.21;44.90
36932;BME280;22847;42.654;23.370;2022-11-03T02:07:53;95204.94;;;18.25;45.28
36932;BME280;22847;42.654;23.370;2022-11-03T02:10:22;95219.38;;;18.15;45.48
36932;BME280;22847;42.654;23.370;2022-11-03T02:12:48;95209.16;;;18.35;45.57
36932;BME280;22847;42.654;23.370;2022-11-03T02:15:15;95153.88;;;17.81;45.56
36932;BME280;22847;42.654;23.370;2022-11-03T02:17:43;95053.78;;;17.19;45.82
36932;BME280;22847;42.654;23.370;2022-11-03T02:20:13;94946.38;;;16.45;46.18
36932;BME280;22847;42.654;23.370;2022-11-03T02:28:18;95209.63;;;18.01;46.42
36932;BME280;22847;42.654;23.370;2022-11-03T02:33:58;95210.59;;;18.22;46.34
36932;BME280;22847;42.654;23.370;2022-11-03T02:36:42;95198.03;;;18.24;45.96
36932;BME280;22847;42.654;23.370;2022-11-03T02:39:18;95030.75;;;17.13;46.50
36932;BME280;22847;42.654;23.370;2022-11-03T02:41:46;95203.59;;;18.29;45.57
36932;BME280;22847;42.654;23.370;2022-11-03T02:44:15;95203.88;;;18.35;45.64
36932;BME280;22847;42.654;23.370;2022-11-03T02:46:46;95187.63;;;18.08;46.08
36932;BME280;22847;42.654;23.370;2022-11-03T02:49:12;95171.50;;;18.03;46.31
36932;BME280;22847;42.654;23.370;2022-11-03T02:51:38;95243.97;;;18.15;46.06
36932;BME280;22847;42.654;23.370;2022-11-03T02:56:38;95213.47;;;17.90;46.48
36932;BME280;22847;42.654;23.370;2022-11-03T02:59:11;95017.34;;;17.00;45.73
36932;BME280;22847;42.654;23.370;2022-11-03T03:01:41;95162.75;;;18.03;46.13
36932;BME280;22847;42.654;23.370;2022-11-03T03:04:17;95175.31;;;18.01;45.24
36932;BME280;22847;42.654;23.370;2022-11-03T03:07:03;95169.31;;;17.84;45.52
36932;BME280;22847;42.654;23.370;2022-11-03T03:09:38;95011.38;;;17.06;45.24
36932;BME280;22847;42.654;23.370;2022-11-03T03:12:07;95205.31;;;18.22;45.90
36932;BME280;22847;42.654;23.370;2022-11-03T03:14:37;94973.19;;;16.79;46.00
36932;BME280;22847;42.654;23.370;2022-11-03T03:17:48;95200.66;;;18.24;45.76
36932;BME280;22847;42.654;23.370;2022-11-03T03:20:22;94973.06;;;16.73;45.85
36932;BME280;22847;42.654;23.370;2022-11-03T03:22:55;95191.91;;;18.09;45.82
36932;BME280;22847;42.654;23.370;2022-11-03T03:27:59;95091.75;;;17.48;46.02
36932;BME280;22847;42.654;23.370;2022-11-03T03:30:29;95205.41;;;18.14;45.96
36932;BME280;22847;42.654;23.370;2022-11-03T03:32:58;95153.09;;;17.72;46.09
36932;BME280;22847;42.654;23.370;2022-11-03T03:35:28;95212.19;;;18.09;45.82
36932;BME280;22847;42.654;23.370;2022-11-03T03:38:01;95225.72;;;18.06;45.92
36932;BME280;22847;42.654;23.370;2022-11-03T03:40:32;95164.28;;;17.74;46.34
36932;BME280;22847;42.654;23.370;2022-11-03T03:43:01;95167.94;;;17.73;46.52
36932;BME280;22847;42.654;23.370;2022-11-03T03:45:30;95159.06;;;17.66;46.19
36932;BME280;22847;42.654;23.370;2022-11-03T03:47:56;95205.56;;;17.90;45.98
36932;BME280;22847;42.654;23.370;2022-11-03T03:50:23;95174.91;;;17.66;47.07
36932;BME280;22847;42.654;23.370;2022-11-03T03:52:54;95042.72;;;16.70;46.27
36932;BME280;22847;42.654;23.370;2022-11-03T03:55:24;95229.28;;;17.67;47.48
36932;BME280;22847;42.654;23.370;2022-11-03T03:57:51;95207.53;;;17.88;46.71
36932;BME280;22847;42.654;23.370;2022-11-03T04:00:17;95224.25;;;17.80;47.03
36932;BME280;22847;42.654;23.370;2022-11-03T04:02:43;95088.41;;;17.08;46.46
36932;BME280;22847;42.654;23.370;2022-11-03T04:05:08;95143.78;;;17.31;46.83
36932;BME280;22847;42.654;23.370;2022-11-03T04:07:34;95223.09;;;17.60;47.09
36932;BME280;22847;42.654;23.370;2022-11-03T04:10:11;95216.56;;;17.71;47.51
36932;BME280;22847;42.654;23.370;2022-11-03T04:12:40;95219.88;;;17.73;47.31
36932;BME280;22847;42.654;23.370;2022-11-03T04:15:24;95122.19;;;17.05;47.53
36932;BME280;22847;42.654;23.370;2022-11-03T04:18:08;95176.38;;;17.38;47.89
36932;BME280;22847;42.654;23.370;2022-11-03T04:20:52;95216.63;;;17.63;47.43
36932;BME280;22847;42.654;23.370;2022-11-03T04:23:36;95176.19;;;17.39;47.75
36932;BME280;22847;42.654;23.370;2022-11-03T04:26:03;95202.97;;;17.59;47.90
36932;BME280;22847;42.654;23.370;2022-11-03T04:28:33;95225.84;;;17.67;48.22
36932;BME280;22847;42.654;23.370;2022-11-03T04:30:59;95213.81;;;17.56;48.13
36932;BME280;22847;42.654;23.370;2022-11-03T04:33:25;95013.69;;;16.39;48.62
36932;BME280;22847;42.654;23.370;2022-11-03T04:35:51;95176.25;;;17.31;48.18
36932;BME280;22847;42.654;23.370;2022-11-03T04:38:22;95211.28;;;17.40;48.50
36932;BME280;22847;42.654;23.370;2022-11-03T04:40:52;95205.50;;;17.45;48.55
36932;BME280;22847;42.654;23.370;2022-11-03T04:43:20;95173.41;;;17.02;48.90
36932;BME280;22847;42.654;23.370;2022-11-03T04:45:47;95189.16;;;17.18;48.96
36932;BME280;22847;42.654;23.370;2022-11-03T04:48:18;95204.78;;;17.28;48.72
36932;BME280;22847;42.654;23.370;2022-11-03T04:50:45;95204.78;;;17.28;49.14
36932;BME280;22847;42.654;23.370;2022-11-03T04:53:12;95224.38;;;17.25;49.23
36932;BME280;22847;42.654;23.370;2022-11-03T04:55:39;95215.16;;;17.21;50.83
36932;BME280;22847;42.654;23.370;2022-11-03T04:58:27;95173.38;;;16.71;50.04
36932;BME280;22847;42.654;23.370;2022-11-03T05:00:57;94886.72;;;14.64;50.63
36932;BME280;22847;42.654;23.370;2022-11-03T05:03:26;95147.53;;;16.67;49.66
36932;BME280;22847;42.654;23.370;2022-11-03T05:05:53;95214.25;;;16.98;49.39
36932;BME280;22847;42.654;23.370;2022-11-03T05:08:19;95014.59;;;15.44;50.40
36932;BME280;22847;42.654;23.370;2022-11-03T05:10:46;95245.75;;;16.91;49.57
36932;BME280;22847;42.654;23.370;2022-11-03T05:13:24;95223.66;;;17.01;49.77
36932;BME280;22847;42.654;23.370;2022-11-03T05:15:55;95220.91;;;16.86;49.79
36932;BME280;22847;42.654;23.370;2022-11-03T05:18:27;95232.38;;;17.01;49.43
36932;BME280;22847;42.654;23.370;2022-11-03T05:20:57;95271.56;;;17.04;49.90
36932;BME280;22847;42.654;23.370;2022-11-03T05:23:25;95229.66;;;16.78;48.94
36932;BME280;22847;42.654;23.370;2022-11-03T05:25:52;95263.69;;;16.96;48.92
36932;BME280;22847;42.654;23.370;2022-11-03T05:28:27;95168.13;;;16.55;48.94
36932;BME280;22847;42.654;23.370;2022-11-03T05:30:55;95028.38;;;15.71;49.06
36932;BME280;22847;42.654;23.370;2022-11-03T05:33:30;95234.50;;;17.06;49.11
36932;BME280;22847;42.654;23.370;2022-11-03T05:35:57;95124.56;;;16.36;49.39
36932;BME280;22847;42.654;23.370;2022-11-03T05:38:31;95279.09;;;17.23;49.26
36932;BME280;22847;42.654;23.370;2022-11-03T05:40:57;95140.66;;;16.66;48.83
36932;BME280;22847;42.654;23.370;2022-11-03T05:43:23;95274.88;;;17.45;48.25
36932;BME280;22847;42.654;23.370;2022-11-03T05:45:50;95110.16;;;16.71;48.28
36932;BME280;22847;42.654;23.370;2022-11-03T05:48:34;95276.88;;;18.05;47.09
36932;BME280;22847;42.654;23.370;2022-11-03T05:51:02;95258.38;;;19.32;44.23
36932;BME280;22847;42.654;23.370;2022-11-03T05:53:39;95299.53;;;21.06;40.52
36932;BME280;22847;42.654;23.370;2022-11-03T05:56:12;95250.31;;;22.46;37.19
36932;BME280;22847;42.654;23.370;2022-11-03T05:58:42;95218.41;;;23.76;34.53
36932;BME280;22847;42.654;23.370;2022-11-03T06:01:17;95184.84;;;24.62;32.36
36932;BME280;22847;42.654;23.370;2022-11-03T06:03:43;95109.56;;;25.21;30.96
36932;BME280;22847;42.654;23.370;2022-11-03T06:08:41;95278.59;;;27.89;28.16
36932;BME280;22847;42.654;23.370;2022-11-03T06:11:09;95261.16;;;28.15;27.69
36932;BME280;22847;42.654;23.370;2022-11-03T06:13:40;95265.72;;;28.71;26.97
36932;BME280;22847;42.654;23.370;2022-11-03T06:18:45;95250.47;;;29.98;25.30
36932;BME280;22847;42.654;23.370;2022-11-03T06:21:14;95109.41;;;29.67;24.61
36932;BME280;22847;42.654;23.370;2022-11-03T06:23:40;95279.88;;;31.07;24.56
36932;BME280;22847;42.654;23.370;2022-11-03T06:26:17;95255.28;;;30.72;24.54
36932;BME280;22847;42.654;23.370;2022-11-03T06:28:45;95266.72;;;30.35;25.04
36932;BME280;22847;42.654;23.370;2022-11-03T06:31:31;95273.63;;;30.48;24.86
36932;BME280;22847;42.654;23.370;2022-11-03T06:33:57;95275.22;;;30.71;24.40
36932;BME280;22847;42.654;23.370;2022-11-03T06:36:25;95282.81;;;31.42;23.98
36932;BME280;22847;42.654;23.370;2022-11-03T06:38:55;95271.38;;;32.09;23.01
36932;BME280;22847;42.654;23.370;2022-11-03T06:41:26;95273.59;;;32.27;22.70
36932;BME280;22847;42.654;23.370;2022-11-03T06:43:53;95298.19;;;32.31;22.66
36932;BME280;22847;42.654;23.370;2022-11-03T06:46:20;95289.03;;;31.43;23.44
36932;BME280;22847;42.654;23.370;2022-11-03T06:48:47;95162.66;;;30.14;24.23
36932;BME280;22847;42.654;23.370;2022-11-03T06:51:21;95309.13;;;30.72;24.51
36932;BME280;22847;42.654;23.370;2022-11-03T06:53:48;95315.63;;;30.49;24.72
36932;BME280;22847;42.654;23.370;2022-11-03T06:56:24;95277.91;;;29.62;25.67
36932;BME280;22847;42.654;23.370;2022-11-03T06:58:55;95273.38;;;29.84;25.85
36932;BME280;22847;42.654;23.370;2022-11-03T07:01:27;95086.41;;;28.06;26.28
36932;BME280;22847;42.654;23.370;2022-11-03T07:03:58;95265.00;;;28.75;27.22
36932;BME280;22847;42.654;23.370;2022-11-03T07:06:29;95208.25;;;27.70;27.89
36932;BME280;22847;42.654;23.370;2022-11-03T07:08:58;95242.69;;;27.90;28.18
36932;BME280;22847;42.654;23.370;2022-11-03T07:11:26;95273.34;;;28.34;28.28
36932;BME280;22847;42.654;23.370;2022-11-03T07:13:56;95272.53;;;27.93;28.37
36932;BME280;22847;42.654;23.370;2022-11-03T07:18:53;95228.69;;;26.48;29.72
36932;BME280;22847;42.654;23.370;2022-11-03T07:21:49;95268.69;;;26.13;30.99
36932;BME280;22847;42.654;23.370;2022-11-03T07:24:18;95274.06;;;25.77;31.73
36932;BME280;22847;42.654;23.370;2022-11-03T07:26:46;95229.88;;;25.02;32.68
36932;BME280;22847;42.654;23.370;2022-11-03T07:29:19;95063.88;;;24.07;33.17
36932;BME280;22847;42.654;23.370;2022-11-03T07:31:46;95286.91;;;24.76;33.56
36932;BME280;22847;42.654;23.370;2022-11-03T07:34:14;95102.31;;;23.17;34.75
36932;BME280;22847;42.654;23.370;2022-11-03T07:36:43;95253.31;;;24.37;34.47
36932;BME280;22847;42.654;23.370;2022-11-03T07:39:12;95227.53;;;24.31;34.29
36932;BME280;22847;42.654;23.370;2022-11-03T07:41:40;95274.59;;;24.75;33.43
36932;BME280;22847;42.654;23.370;2022-11-03T07:44:12;95266.16;;;24.78;33.94
36932;BME280;22847;42.654;23.370;2022-11-03T07:46:38;95153.97;;;24.23;33.77
36932;BME280;22847;42.654;23.370;2022-11-03T07:49:04;95267.69;;;24.67;33.58
36932;BME280;22847;42.654;23.370;2022-11-03T07:51:36;95280.50;;;24.21;34.07
36932;BME280;22847;42.654;23.370;2022-11-03T07:54:15;95055.25;;;22.73;35.42
36932;BME280;22847;42.654;23.370;2022-11-03T07:56:49;95304.03;;;23.79;35.80
36932;BME280;22847;42.654;23.370;2022-11-03T07:59:19;95279.66;;;23.76;35.26
36932;BME280;22847;42.654;23.370;2022-11-03T08:01:50;95210.97;;;23.27;35.92
36932;BME280;22847;42.654;23.370;2022-11-03T08:04:18;95248.81;;;23.48;36.11
36932;BME280;22847;42.654;23.370;2022-11-03T08:06:44;95077.97;;;22.56;36.23
36932;BME280;22847;42.654;23.370;2022-11-03T08:09:10;95243.38;;;23.75;35.80
36932;BME280;22847;42.654;23.370;2022-11-03T08:11:35;95274.47;;;24.32;34.96
36932;BME280;22847;42.654;23.370;2022-11-03T08:14:01;95227.53;;;24.31;34.88
36932;BME280;22847;42.654;23.370;2022-11-03T08:16:26;95242.06;;;24.66;34.33
36932;BME280;22847;42.654;23.370;2022-11-03T08:18:52;95237.19;;;24.57;34.51
36932;BME280;22847;42.654;23.370;2022-11-03T08:21:17;95242.09;;;24.60;34.58
36932;BME280;22847;42.654;23.370;2022-11-03T08:23:43;95252.75;;;24.60;34.79
36932;BME280;22847;42.654;23.370;2022-11-03T08:26:08;95275.34;;;24.82;34.48
36932;BME280;22847;42.654;23.370;2022-11-03T08:28:34;95075.09;;;23.91;34.38
36932;BME280;22847;42.654;23.370;2022-11-03T08:30:59;95205.75;;;24.65;34.31
36932;BME280;22847;42.654;23.370;2022-11-03T08:33:30;95123.38;;;24.01;34.23
36932;BME280;22847;42.654;23.370;2022-11-03T08:35:57;95229.28;;;24.43;34.43
36932;BME280;22847;42.654;23.370;2022-11-03T08:38:22;95228.56;;;24.30;34.84
36932;BME280;22847;42.654;23.370;2022-11-03T08:40:48;95219.50;;;24.37;34.92
36932;BME280;22847;42.654;23.370;2022-11-03T08:43:13;95240.22;;;24.35;34.31
36932;BME280;22847;42.654;23.370;2022-11-03T08:45:38;95120.53;;;23.96;34.30
36932;BME280;22847;42.654;23.370;2022-11-03T08:48:04;95205.75;;;24.90;34.41
36932;BME280;22847;42.654;23.370;2022-11-03T08:50:30;95223.38;;;25.16;34.60
36932;BME280;22847;42.654;23.370;2022-11-03T08:52:55;95215.56;;;25.14;34.24
36932;BME280;22847;42.654;23.370;2022-11-03T08:55:20;95067.41;;;23.76;33.54
36932;BME280;22847;42.654;23.370;2022-11-03T08:57:46;95185.72;;;24.56;33.98
36932;BME280;22847;42.654;23.370;2022-11-03T09:00:12;95243.03;;;24.72;34.35
36932;BME280;22847;42.654;23.370;2022-11-03T09:02:38;95080.91;;;23.81;35.09
36932;BME280;22847;42.654;23.370;2022-11-03T09:05:04;95244.22;;;24.76;34.54
36932;BME280;22847;42.654;23.370;2022-11-03T09:07:30;95226.38;;;25.01;33.73
36932;BME280;22847;42.654;23.370;2022-11-03T09:09:56;95203.50;;;24.87;33.99
36932;BME280;22847;42.654;23.370;2022-11-03T09:12:21;95171.22;;;24.70;33.69
36932;BME280;22847;42.654;23.370;2022-11-03T09:14:46;95194.47;;;24.38;33.90
36932;BME280;22847;42.654;23.370;2022-11-03T09:17:12;95198.13;;;24.44;34.29
36932;BME280;22847;42.654;23.370;2022-11-03T09:19:37;95189.53;;;24.67;34.36
36932;BME280;22847;42.654;23.370;2022-11-03T09:22:03;95198.72;;;25.14;33.76
36932;BME280;22847;42.654;23.370;2022-11-03T09:24:28;95028.13;;;24.21;33.41
36932;BME280;22847;42.654;23.370;2022-11-03T09:26:54;95193.09;;;25.22;33.01
36932;BME280;22847;42.654;23.370;2022-11-03T09:29:20;95179.53;;;25.42;32.39
36932;BME280;22847;42.654;23.370;2022-11-03T09:31:45;95245.16;;;25.49;32.32
36932;BME280;22847;42.654;23.370;2022-11-03T09:34:11;95096.78;;;24.87;32.54
36932;BME280;22847;42.654;23.370;2022-11-03T09:36:36;95182.06;;;25.37;32.63
36932;BME280;22847;42.654;23.370;2022-11-03T09:39:02;95206.38;;;25.28;32.70
36932;BME280;22847;42.654;23.370;2022-11-03T09:41:29;95188.38;;;25.24;32.81
36932;BME280;22847;42.654;23.370;2022-11-03T09:43:55;95150.03;;;25.18;33.12
36932;BME280;22847;42.654;23.370;2022-11-03T09:46:21;95180.66;;;25.52;32.78
36932;BME280;22847;42.654;23.370;2022-11-03T09:48:47;95180.66;;;25.70;32.33
36932;BME280;22847;42.654;23.370;2022-11-03T09:51:17;95152.63;;;25.25;32.28
36932;BME280;22847;42.654;23.370;2022-11-03T09:53:43;95172.41;;;25.54;32.67
36932;BME280;22847;42.654;23.370;2022-11-03T09:56:09;95167.66;;;25.74;32.23
36932;BME280;22847;42.654;23.370;2022-11-03T09:58:35;94992.44;;;24.59;32.30
36932;BME280;22847;42.654;23.370;2022-11-03T10:01:01;95026.91;;;24.97;32.38
36932;BME280;22847;42.654;23.370;2022-11-03T10:03:27;95155.75;;;25.88;32.53
36932;BME280;22847;42.654;23.370;2022-11-03T10:05:53;95153.22;;;25.93;32.16
36932;BME280;22847;42.654;23.370;2022-11-03T10:10:44;95149.72;;;25.93;31.99
36932;BME280;22847;42.654;23.370;2022-11-03T10:13:12;95145.75;;;25.84;31.98
36932;BME280;22847;42.654;23.370;2022-11-03T10:15:42;94947.00;;;24.54;31.87
36932;BME280;22847;42.654;23.370;2022-11-03T10:18:08;95093.19;;;25.48;31.64
36932;BME280;22847;42.654;23.370;2022-11-03T10:20:34;95138.63;;;25.77;31.36
36932;BME280;22847;42.654;23.370;2022-11-03T10:22:59;95108.88;;;25.74;31.70
36932;BME280;22847;42.654;23.370;2022-11-03T10:25:39;95123.44;;;25.90;31.40
36932;BME280;22847;42.654;23.370;2022-11-03T10:30:55;94901.84;;;24.40;30.74
36932;BME280;22847;42.654;23.370;2022-11-03T10:35:57;95070.38;;;25.63;30.24
36932;BME280;22847;42.654;23.370;2022-11-03T10:40:48;94921.56;;;24.99;29.95
36932;BME280;22847;42.654;23.370;2022-11-03T10:43:14;95087.94;;;26.12;29.68
36932;BME280;22847;42.654;23.370;2022-11-03T10:45:39;95095.13;;;26.12;29.30
36932;BME280;22847;42.654;23.370;2022-11-03T10:48:05;95046.31;;;25.93;28.68
36932;BME280;22847;42.654;23.370;2022-11-03T10:50:33;95053.50;;;25.93;28.24
36932;BME280;22847;42.654;23.370;2022-11-03T10:52:58;95084.34;;;26.18;27.92
36932;BME280;22847;42.654;23.370;2022-11-03T10:55:25;95043.63;;;25.93;27.52
36932;BME280;22847;42.654;23.370;2022-11-03T10:57:52;94868.00;;;24.82;27.14
36932;BME280;22847;42.654;23.370;2022-11-03T11:00:19;95081.97;;;25.87;27.51
36932;BME280;22847;42.654;23.370;2022-11-03T11:02:46;95063.47;;;25.86;27.68
36932;BME280;22847;42.654;23.370;2022-11-03T11:05:16;95030.50;;;25.80;27.69
36932;BME280;22847;42.654;23.370;2022-11-03T11:07:44;94885.63;;;25.02;27.02
36932;BME280;22847;42.654;23.370;2022-11-03T11:15:56;95005.75;;;25.43;27.86
36932;BME280;22847;42.654;23.370;2022-11-03T11:21:00;94869.63;;;24.72;27.64
36932;BME280;22847;42.654;23.370;2022-11-03T11:31:37;94900.19;;;25.29;28.28
36932;BME280;22847;42.654;23.370;2022-11-03T11:42:17;94901.47;;;25.38;28.12
36932;BME280;22847;42.654;23.370;2022-11-03T11:52:30;94999.00;;;25.41;28.73
36932;BME280;22847;42.654;23.370;2022-11-03T11:54:56;94900.25;;;24.33;29.02
36932;BME280;22847;42.654;23.370;2022-11-03T11:57:22;94816.63;;;24.16;28.87
36932;BME280;22847;42.654;23.370;2022-11-03T11:59:48;94944.22;;;25.08;28.72
36932;BME280;22847;42.654;23.370;2022-11-03T12:02:28;94921.69;;;25.04;28.77
36932;BME280;22847;42.654;23.370;2022-11-03T12:04:57;94828.03;;;24.53;28.57
36932;BME280;22847;42.654;23.370;2022-11-03T12:07:32;94962.78;;;25.45;28.39
36932;BME280;22847;42.654;23.370;2022-11-03T12:10:28;94971.22;;;25.71;28.09
36932;BME280;22847;42.654;23.370;2022-11-03T12:12:54;94966.13;;;25.40;27.70
36932;BME280;22847;42.654;23.370;2022-11-03T12:15:49;94973.72;;;25.13;28.18
36932;BME280;22847;42.654;23.370;2022-11-03T12:20:56;94931.47;;;24.80;28.56
36932;BME280;22847;42.654;23.370;2022-11-03T12:23:54;94965.13;;;25.11;28.13
36932;BME280;22847;42.654;23.370;2022-11-03T12:28:51;94957.69;;;25.13;28.52
36932;BME280;22847;42.654;23.370;2022-11-03T12:31:16;94948.19;;;25.17;27.92
36932;BME280;22847;42.654;23.370;2022-11-03T12:33:42;94952.56;;;25.30;28.02
36932;BME280;22847;42.654;23.370;2022-11-03T12:36:07;94776.59;;;24.22;27.50
36932;BME280;22847;42.654;23.370;2022-11-03T12:38:33;94941.47;;;25.15;27.85
36932;BME280;22847;42.654;23.370;2022-11-03T12:40:58;94955.41;;;25.17;28.13
36932;BME280;22847;42.654;23.370;2022-11-03T12:43:44;94948.13;;;25.24;27.82
36932;BME280;22847;42.654;23.370;2022-11-03T12:46:09;94944.81;;;25.10;28.17
36932;BME280;22847;42.654;23.370;2022-11-03T12:48:36;94947.91;;;24.96;28.79
36932;BME280;22847;42.654;23.370;2022-11-03T12:51:01;94938.78;;;24.85;28.04
36932;BME280;22847;42.654;23.370;2022-11-03T12:53:26;94959.84;;;24.93;27.97
36932;BME280;22847;42.654;23.370;2022-11-03T12:55:52;94938.97;;;24.72;28.55
36932;BME280;22847;42.654;23.370;2022-11-03T12:58:17;94932.38;;;24.56;28.85
36932;BME280;22847;42.654;23.370;2022-11-03T13:00:43;94916.16;;;24.58;29.05
36932;BME280;22847;42.654;23.370;2022-11-03T13:03:08;94929.06;;;24.91;27.85
36932;BME280;22847;42.654;23.370;2022-11-03T13:05:35;94891.88;;;24.48;28.37
36932;BME280;22847;42.654;23.370;2022-11-03T13:08:00;94803.09;;;23.63;28.86
36932;BME280;22847;42.654;23.370;2022-11-03T13:10:25;94924.84;;;24.53;29.10
36932;BME280;22847;42.654;23.370;2022-11-03T13:12:51;94898.41;;;24.33;29.11
36932;BME280;22847;42.654;23.370;2022-11-03T13:15:16;94763.59;;;23.60;28.98
36932;BME280;22847;42.654;23.370;2022-11-03T13:17:42;94956.16;;;24.58;29.24
36932;BME280;22847;42.654;23.370;2022-11-03T13:20:08;94719.56;;;23.39;29.42
36932;BME280;22847;42.654;23.370;2022-11-03T13:22:34;94906.50;;;24.45;28.53
36932;BME280;22847;42.654;23.370;2022-11-03T13:24:59;94863.97;;;24.14;28.78
36932;BME280;22847;42.654;23.370;2022-11-03T13:27:24;94722.56;;;23.06;29.24
36932;BME280;22847;42.654;23.370;2022-11-03T13:29:50;94920.03;;;24.25;29.75
36932;BME280;22847;42.654;23.370;2022-11-03T13:32:15;94762.50;;;23.49;29.46
36932;BME280;22847;42.654;23.370;2022-11-03T13:34:41;94907.88;;;24.48;29.06
36932;BME280;22847;42.654;23.370;2022-11-03T13:37:06;94914.91;;;24.60;28.74
36932;BME280;22847;42.654;23.370;2022-11-03T13:39:31;94895.13;;;24.50;28.48
36932;BME280;22847;42.654;23.370;2022-11-03T13:41:57;94916.91;;;24.47;28.71
36932;BME280;22847;42.654;23.370;2022-11-03T13:44:22;94914.78;;;24.37;28.85
36932;BME280;22847;42.654;23.370;2022-11-03T13:46:48;94714.84;;;23.23;28.61
36932;BME280;22847;42.654;23.370;2022-11-03T13:49:13;94710.25;;;23.30;28.88
36932;BME280;22847;42.654;23.370;2022-11-03T13:51:41;94588.13;;;22.49;28.55
36932;BME280;22847;42.654;23.370;2022-11-03T13:54:07;94860.00;;;24.23;28.73
36932;BME280;22847;42.654;23.370;2022-11-03T13:56:33;94893.94;;;24.45;28.98
36932;BME280;22847;42.654;23.370;2022-11-03T13:58:58;94881.75;;;24.38;29.21
36932;BME280;22847;42.654;23.370;2022-11-03T14:01:23;94735.50;;;23.45;29.65
36932;BME280;22847;42.654;23.370;2022-11-03T14:03:49;94911.88;;;24.57;28.69
36932;BME280;22847;42.654;23.370;2022-11-03T14:06:14;94899.09;;;24.29;28.92
36932;BME280;22847;42.654;23.370;2022-11-03T14:08:40;94905.69;;;24.26;28.96
36932;BME280;22847;42.654;23.370;2022-11-03T14:11:05;94665.81;;;22.76;28.93